Terminal Aerodrome Forecast
Issued by NWS Albany, NY

Home | Current Version | Previous Version | Text Only | Print | Product List | Glossary On
Versions: 1 2 3 4 5 6 7 8 9 10 11 12 13 14 15 16 17 18 19 20 21 22 23 24 25 26 27
000
FTUS41 KALY 271700 AAB
TAFPOU
TAF AMD
KPOU 271701Z 2717/2812 36012G22KT 2SM -SN OVC025
      TEMPO 2717/2719 1SM -SN OVC015
     FM271900 34014G24KT P6SM VCSH OVC045
     FM280000 33010G20KT P6SM OVC045
     FM280600 34007KT P6SM OVC050=

USA.gov is the U.S. government's official web portal to all federal, state and local government web resources and services.